This is the latest recevied weather packets stored in our database for station/object W8AN. If no packets are shown the sender has not sent any weather packets the latest 10 day(s).
| Time | Temp. | Humidity | Pressure | Rain* | Wind** | Luminosity | Snow |
|---|---|---|---|---|---|---|---|
| 1777928655 | 24.44° C | 44% | 4256.5 hPa | 0 mm | - | 370 W/m² | - |
| 1777928352 | 23.89° C | 46% | 4256.7 hPa | 0 mm | - | 161 W/m² | - |
| 1777928050 | 23.89° C | 44% | 4256.6 hPa | 0 mm | - | 524 W/m² | - |
| 1777927748 | 23.89° C | 45% | 4256.8 hPa | 0 mm | - | 220 W/m² | - |
| 1777927446 | 23.33° C | 46% | 4256.8 hPa | 0 mm | - | 165 W/m² | - |
| 1777927145 | 23.89° C | 45% | 4256.7 hPa | 0 mm | - | 659 W/m² | - |
| 1777926842 | 23.33° C | 46% | 4256.8 hPa | 0 mm | - | 123 W/m² | - |
| 1777926538 | 23.33° C | 46% | 4257 hPa | 0 mm | - | 186 W/m² | - |
| 1777926235 | 23.33° C | 48% | 4257 hPa | 0 mm | - | 117 W/m² | - |
| 1777925931 | 23.33° C | 47% | 4257.1 hPa | 0 mm | - | 655 W/m² | - |
| 1777925629 | 23.33° C | 47% | 4257.3 hPa | 0 mm | - | 197 W/m² | - |
| 1777925326 | 23.33° C | 49% | 4257.3 hPa | 0 mm | - | 221 W/m² | - |
| 1777925023 | 23.89° C | 46% | 4257.4 hPa | 0 mm | - | 738 W/m² | - |
| 1777924719 | 24.44° C | 46% | 4257.4 hPa | 0 mm | - | 735 W/m² | - |
| 1777924415 | 24.44° C | 46% | 4257.3 hPa | 0 mm | - | 315 W/m² | - |
| 1777924112 | 23.33° C | 48% | 4257.6 hPa | 0 mm | - | 452 W/m² | - |
| 1777923808 | 23.89° C | 48% | 4257.6 hPa | 0 mm | - | 329 W/m² | - |
| 1777923504 | 23.33° C | 48% | 4257.5 hPa | 0 mm | - | 738 W/m² | - |
| 1777923201 | 22.78° C | 51% | 4257.9 hPa | 0 mm | - | 391 W/m² | - |
| 1777922900 | 22.78° C | 50% | 4257.9 hPa | 0 mm | - | 299 W/m² | - |
| 1777922597 | 23.33° C | 48% | 4257.8 hPa | 0 mm | - | 273 W/m² | - |
| 1777922296 | 23.33° C | 47% | 4258.2 hPa | 0 mm | - | 812 W/m² | - |
| 1777921993 | 22.78° C | 47% | 4258.1 hPa | 0 mm | - | 412 W/m² | - |
| 1777921688 | 22.22° C | 49% | 4258.3 hPa | 0 mm | - | 841 W/m² | - |
| 1777921385 | 22.22° C | 47% | 4258.4 hPa | 0 mm | - | 332 W/m² | - |
* Rain latest hour (hover to see other rain measurements)
** Current wind speed in m/s (hover to see current wind gust speed)